My Meet Scores
Tijana Farkic, Gym Kinetics Gymnastics - MyMeetScores.com
Top100 | Top Teams | Upcoming Meets | Completed Meets | Latest | Add Scores | Help| Support | Bookmark and Share

Tijana Farkic, Gym Kinetics Gymnastics
Personal Bests
LevelVault BarsBeamFloorAA
39.4509.350 9.6759.20037.400
XG8.8759.700 9.3009.45036.900
Meet Scores
Date Meet Team Session Level Division Vault Bars Beam Floor AA
2019-04-05 2019 Illinois XG, XP, XD State Championships Gym Kinetics Gymnastics 9 XG Sr E 8.850 23 9.400 13T 8.900 19 9.450 9 36.600 14
2019-03-01 NGCD Academy's 2019 Flip'r Invitational Gym Kinetics Gymnastics 2 XG Sr 8.875 9 9.650 2T 9.150 5T 9.225 8T 36.900 7
2019-02-23 Kinetic Classic 2019 Gym Kinetics Gymnastics 1 XG Older 8.700 24 9.225 6 8.875 19T 9.100 10 35.900 13
2019-02-08 Midwest Twisters Harley Meet Womens Gym Kinetics Gymnastics S02 XG 14 yrs.+ 8.675 4 8.850 3 9.125 1T 9.075 6 35.725 2T
2019-01-18 2019 Bravo Classic Gym Kinetics Gymnastics 1A XG Sr 8.425 19 9.150 11 9.225 7T 9.000 16T 35.800 10
2019-01-11 St Jude Benefit Meet Gym Kinetics Gymnastics 4C XG Sr B 8.450 15 9.350 5 9.000 7T 8.700 13 35.500 11
2018-12-14 2018 Aspire Classic Gym Kinetics Gymnastics 11A XG Older 8.300 23 9.400 10T 8.275 23 9.425 11 35.400 20
2018-04-06 XCEL State Championships Gym Kinetics Gymnastics 4B XG Jr E 8.575 16 8.950 20 8.875 17 9.300 8T 35.700 17
2018-02-23 Kinetic Classic Gym Kinetics Gymnastics 6 XG Older 8.700 43T 9.200 28T 8.325 72 9.350 32T 35.575 44
2018-02-03 Midwest Games Gym Kinetics Gymnastics 2 XG SR 8.750 13 8.550 9 8.625 11 9.300 9T 35.225 11
2018-01-19 2018 Bravo Classic Gym Kinetics Gymnastics 1B XG Sr 8.700 16 8.925 9 8.875 13 8.300 17 34.800 14
2017-12-15 2017 Aspire Classic Gym Kinetics Gymnastics 10B XG Sr A 8.400 9T 9.700 2T 9.300 4 9.100 13 36.500 5
2017-03-30 2017 Illinois Level 3 & 5 State Gym Kinetics Gymnastics All 3 SrF 9.450 13 9.100 16T 9.675 1 9.175 8 37.400 6
2017-02-24 Kinetic Classic Gym Kinetics Gymnastics 4,5,6,7 3 All Ages 9.125 45T 8.350 86T 9.250 21T 8.825 65T 35.550 63
2017-02-09 Hal's Harley-Davidson Invite Gym Kinetics Gymnastics S11 3 11+ yrs. 9.250 2T 8.750 4 9.250 2 9.200 4 36.450 3
2017-01-13 St Jude Benefit Meet Gym Kinetics Gymnastics 7A 3 Sr B 9.075 10 8.925 11 9.025 7 9.150 6 36.175 8
2016-12-16 2016 Aspire Classic Gym Kinetics Gymnastics 11 3 Older 9.400 5T 9.050 9T 8.800 6T 9.175 9 36.425 5T
2016-03-04 2016 Illinois Level 3 State Championships Gym Kinetics Gymnastics 3 Senior-E 9.425 8 8.900 15 8.900 7 8.750 20 35.975 13
2016-02-20 Big Classic Gym Kinetics Gymnastics 4B 3 Child C 9.200 9T 8.650 15 8.725 15 8.400 18 34.975 14
2016-01-22 2016 Honkytonk Classic Gym Kinetics Gymnastics 02 3 SrB 9.450 3 9.350 4 9.200 1 9.100 7 37.100 1
2016-01-15 2016 Bravo Classic Gym Kinetics Gymnastics 3A 3 9+yrs 8.875 17 9.000 12T 9.225 10T 8.750 18T 35.850 15
2015-12-18 2015 Aspire Classic Gym Kinetics Gymnastics 11 3 Older 9.025 22T 9.300 3T 8.425 22 0.000 21T 26.750 22
Get your scores on
a t-shirt, pin, or hoodie

www.lazysuits.com